Time;durP1;ratioP1;P1;durP2;ratioP2;P2;SDS_P1;SDS_P2;PMS_P1;PMS_P2;Temp;Humidity;BMP_temperature;BMP_pressure;BME280_temperature;BME280_humidity;BME280_pressure;Samples;Min_cycle;Max_cycle;Signal;HPM_P1;HPM_P2
2024/01/16 00:01:57;;;;;;;39.25;20.70;;;;;;;;;;4992819;28;20069;-70
2024/01/16 00:04:22;;;;;;;35.95;22.17;;;;;;;;;;4990887;28;20026;-72
2024/01/16 00:06:48;;;;;;;33.88;20.13;;;;;;;;;;4989517;28;20080;-71
2024/01/16 00:09:14;;;;;;;36.53;22.30;;;;;;;;;;4992714;28;20139;-71
2024/01/16 00:11:43;;;;;;;36.50;19.90;;;;;;;;;;4992750;28;20023;-72
2024/01/16 00:14:09;;;;;;;33.00;19.55;;;;;;;;;;4992906;28;20041;-70
2024/01/16 00:16:42;;;;;;;33.40;19.13;;;;;;;;;;4994267;28;20407;-71
2024/01/16 00:19:08;;;;;;;38.97;20.00;;;;;;;;;;5010467;28;20123;-71
2024/01/16 00:21:39;;;;;;;36.28;20.50;;;;;;;;;;5009987;28;20084;-70
2024/01/16 00:24:04;;;;;;;36.55;20.25;;;;;;;;;;5011045;28;20486;-70
2024/01/16 00:26:30;;;;;;;38.70;20.15;;;;;;;;;;4981462;28;20022;-70
2024/01/16 00:28:56;;;;;;;41.40;21.55;;;;;;;;;;4991804;28;20530;-71
2024/01/16 00:31:22;;;;;;;35.92;20.88;;;;;;;;;;4958930;28;20453;-71
2024/01/16 00:33:47;;;;;;;37.05;21.13;;;;;;;;;;4994090;28;20447;-72
2024/01/16 00:36:13;;;;;;;41.90;21.23;;;;;;;;;;5010792;28;20504;-71
2024/01/16 00:38:39;;;;;;;36.38;19.52;;;;;;;;;;4995141;28;20122;-70
2024/01/16 00:41:05;;;;;;;34.67;20.17;;;;;;;;;;4994924;28;20085;-70
2024/01/16 00:43:30;;;;;;;39.45;20.50;;;;;;;;;;4994908;28;20034;-70
2024/01/16 00:45:56;;;;;;;34.53;18.45;;;;;;;;;;4995087;28;20440;-70
2024/01/16 00:48:22;;;;;;;34.33;18.23;;;;;;;;;;4994951;28;20113;-70
2024/01/16 00:50:49;;;;;;;34.13;18.65;;;;;;;;;;4994949;28;20049;-71
2024/01/16 00:53:17;;;;;;;32.72;18.38;;;;;;;;;;4994833;28;20416;-69
2024/01/16 00:55:43;;;;;;;30.48;17.35;;;;;;;;;;4994990;28;20387;-70
2024/01/16 00:58:09;;;;;;;29.80;17.90;;;;;;;;;;4994909;28;20034;-71
2024/01/16 01:00:37;;;;;;;29.63;17.05;;;;;;;;;;4978237;28;20262;-71
2024/01/16 01:03:03;;;;;;;29.50;17.05;;;;;;;;;;4995396;28;20030;-70
2024/01/16 01:05:29;;;;;;;30.63;17.33;;;;;;;;;;4994865;28;20049;-70
2024/01/16 01:07:56;;;;;;;32.20;18.23;;;;;;;;;;4977330;28;20042;-70
2024/01/16 01:10:22;;;;;;;27.63;17.33;;;;;;;;;;4994271;28;20027;-71
2024/01/16 01:12:48;;;;;;;29.10;17.10;;;;;;;;;;4994502;28;20120;-71
2024/01/16 01:15:14;;;;;;;31.80;17.73;;;;;;;;;;4977068;28;20034;-71
2024/01/16 01:17:40;;;;;;;32.28;17.17;;;;;;;;;;4977106;28;20053;-70
2024/01/16 01:20:08;;;;;;;33.30;18.95;;;;;;;;;;4994389;28;20083;-70
2024/01/16 01:22:34;;;;;;;30.80;16.67;;;;;;;;;;4977011;28;20041;-71
2024/01/16 01:24:59;;;;;;;29.90;17.13;;;;;;;;;;4994209;28;20392;-71
2024/01/16 01:27:25;;;;;;;28.55;16.60;;;;;;;;;;4994586;28;20526;-71
2024/01/16 01:29:51;;;;;;;27.33;16.15;;;;;;;;;;4994536;28;20046;-70
2024/01/16 01:32:17;;;;;;;27.17;15.98;;;;;;;;;;4994479;28;20071;-71
2024/01/16 01:34:43;;;;;;;27.35;15.70;;;;;;;;;;4977231;28;20057;-70
2024/01/16 01:37:09;;;;;;;29.70;17.00;;;;;;;;;;4996749;28;20100;-71
2024/01/16 01:39:34;;;;;;;25.80;15.50;;;;;;;;;;5014184;28;20088;-70
2024/01/16 01:42:00;;;;;;;27.80;15.93;;;;;;;;;;4996991;28;20036;-70
2024/01/16 01:44:26;;;;;;;24.55;15.07;;;;;;;;;;5013778;28;20099;-71
2024/01/16 01:46:54;;;;;;;28.13;15.35;;;;;;;;;;5014009;28;20070;-70
2024/01/16 01:49:21;;;;;;;26.10;15.13;;;;;;;;;;5014508;28;20519;-71
2024/01/16 01:51:48;;;;;;;22.38;14.38;;;;;;;;;;5014349;28;20510;-71
2024/01/16 01:54:15;;;;;;;26.17;16.85;;;;;;;;;;5014023;28;20037;-71
2024/01/16 01:56:44;;;;;;;33.45;20.13;;;;;;;;;;5013494;28;20049;-71
2024/01/16 01:59:11;;;;;;;38.33;21.05;;;;;;;;;;4993462;28;20031;-70
2024/01/16 02:01:38;;;;;;;34.88;20.00;;;;;;;;;;4975884;28;20254;-70
2024/01/16 02:04:05;;;;;;;36.13;21.10;;;;;;;;;;4993633;28;20084;-70
2024/01/16 02:06:30;;;;;;;35.92;19.83;;;;;;;;;;4976375;28;20031;-71
2024/01/16 02:08:57;;;;;;;38.45;21.63;;;;;;;;;;4994854;28;20046;-71
2024/01/16 02:11:23;;;;;;;44.35;23.17;;;;;;;;;;4976580;28;20510;-71
2024/01/16 02:13:49;;;;;;;34.60;21.52;;;;;;;;;;4977248;28;20042;-70
2024/01/16 02:16:22;;;;;;;33.75;21.08;;;;;;;;;;4994262;28;20433;-71
2024/01/16 02:18:49;;;;;;;34.63;20.15;;;;;;;;;;4994165;28;20030;-70
2024/01/16 02:21:21;;;;;;;37.92;21.40;;;;;;;;;;4994050;28;20037;-70
2024/01/16 02:23:47;;;;;;;38.38;19.63;;;;;;;;;;4993806;28;20026;-70
2024/01/16 02:26:17;;;;;;;32.42;19.27;;;;;;;;;;4976792;28;20042;-70
2024/01/16 02:28:43;;;;;;;32.03;18.42;;;;;;;;;;4976324;28;20383;-70
2024/01/16 02:31:09;;;;;;;31.42;18.17;;;;;;;;;;4993349;28;20031;-72
2024/01/16 02:33:34;;;;;;;44.70;18.85;;;;;;;;;;4993698;28;20069;-71
2024/01/16 02:36:00;;;;;;;29.20;17.63;;;;;;;;;;4993301;28;20120;-71
2024/01/16 02:38:26;;;;;;;31.73;16.75;;;;;;;;;;4976634;28;20033;-71
2024/01/16 02:40:52;;;;;;;32.97;16.60;;;;;;;;;;5008725;28;20399;-72
2024/01/16 02:43:17;;;;;;;28.55;17.02;;;;;;;;;;4993828;28;20034;-70
2024/01/16 02:45:43;;;;;;;25.17;15.95;;;;;;;;;;4993615;28;20052;-71
2024/01/16 02:48:09;;;;;;;27.23;16.02;;;;;;;;;;4993595;28;20369;-71
2024/01/16 02:50:35;;;;;;;27.35;16.55;;;;;;;;;;4993468;28;20038;-71
2024/01/16 02:53:00;;;;;;;30.25;18.23;;;;;;;;;;4993313;28;20034;-71
2024/01/16 02:55:26;;;;;;;33.17;17.45;;;;;;;;;;4975569;28;20117;-71
2024/01/16 02:57:52;;;;;;;32.70;18.45;;;;;;;;;;4993255;28;20169;-72
2024/01/16 03:00:17;;;;;;;33.08;17.23;;;;;;;;;;5003572;28;20032;-72
2024/01/16 03:02:44;;;;;;;30.67;18.40;;;;;;;;;;5012769;28;20029;-70
2024/01/16 03:05:10;;;;;;;32.10;18.25;;;;;;;;;;5012088;28;20145;-72
2024/01/16 03:07:36;;;;;;;32.75;18.42;;;;;;;;;;5012883;28;20026;-71
2024/01/16 03:10:03;;;;;;;29.58;16.92;;;;;;;;;;5012420;28;20079;-68
2024/01/16 03:12:29;;;;;;;30.90;18.00;;;;;;;;;;5012676;28;20041;-72
2024/01/16 03:14:54;;;;;;;28.42;18.20;;;;;;;;;;4994157;28;20431;-70
2024/01/16 03:17:20;;;;;;;30.02;17.50;;;;;;;;;;4992461;28;20046;-71
2024/01/16 03:19:46;;;;;;;31.38;17.98;;;;;;;;;;4993046;28;20030;-71
2024/01/16 03:22:12;;;;;;;35.67;20.00;;;;;;;;;;4975199;28;20030;-71
2024/01/16 03:24:38;;;;;;;37.10;21.50;;;;;;;;;;4984780;28;20501;-71
2024/01/16 03:27:04;;;;;;;35.20;19.48;;;;;;;;;;4992237;28;20062;-70
2024/01/16 03:29:30;;;;;;;34.60;20.25;;;;;;;;;;4992769;28;20022;-71
2024/01/16 03:31:55;;;;;;;38.05;20.92;;;;;;;;;;4992730;28;20372;-70
2024/01/16 03:34:22;;;;;;;35.95;20.52;;;;;;;;;;5007419;28;20042;-71
2024/01/16 03:36:49;;;;;;;34.60;20.00;;;;;;;;;;4992860;28;20054;-72
2024/01/16 03:39:14;;;;;;;36.28;21.25;;;;;;;;;;4993103;28;20038;-70
2024/01/16 03:41:40;;;;;;;35.70;21.77;;;;;;;;;;4975162;28;20377;-71
2024/01/16 03:44:06;;;;;;;37.13;22.35;;;;;;;;;;4992566;28;20030;-71
2024/01/16 03:46:31;;;;;;;38.65;21.30;;;;;;;;;;4992383;28;20038;-71
2024/01/16 03:48:57;;;;;;;38.58;20.55;;;;;;;;;;4975351;28;20034;-72
2024/01/16 03:51:23;;;;;;;34.05;20.17;;;;;;;;;;4992238;28;20019;-69
2024/01/16 03:53:48;;;;;;;33.00;21.20;;;;;;;;;;4992343;28;20030;-71
2024/01/16 03:56:16;;;;;;;35.15;20.27;;;;;;;;;;4974938;28;20045;-71
2024/01/16 03:58:42;;;;;;;36.42;19.95;;;;;;;;;;4992606;28;20112;-71
2024/01/16 04:01:08;;;;;;;34.80;20.30;;;;;;;;;;4992465;28;20630;-72
2024/01/16 04:03:38;;;;;;;29.70;18.75;;;;;;;;;;4992630;28;20061;-71
2024/01/16 04:06:14;;;;;;;35.67;19.23;;;;;;;;;;4992192;28;20077;-70
2024/01/16 04:08:40;;;;;;;30.55;19.02;;;;;;;;;;4993992;28;20059;-71
2024/01/16 04:11:12;;;;;;;32.58;19.80;;;;;;;;;;4995231;28;20397;-71
2024/01/16 04:13:37;;;;;;;32.22;18.52;;;;;;;;;;4996014;28;20038;-72
2024/01/16 04:16:03;;;;;;;30.42;18.63;;;;;;;;;;4995479;28;20376;-71
2024/01/16 04:18:29;;;;;;;35.90;19.63;;;;;;;;;;4995925;28;20022;-70
2024/01/16 04:20:55;;;;;;;27.33;17.05;;;;;;;;;;4996054;28;20053;-71
2024/01/16 04:23:20;;;;;;;28.20;16.65;;;;;;;;;;4978481;28;20092;-71
2024/01/16 04:25:46;;;;;;;28.23;16.25;;;;;;;;;;4995835;28;20018;-71
2024/01/16 04:28:12;;;;;;;30.10;16.73;;;;;;;;;;4995877;28;20057;-70
2024/01/16 04:30:37;;;;;;;35.75;22.42;;;;;;;;;;4995319;28;20042;-70
2024/01/16 04:33:03;;;;;;;37.97;21.98;;;;;;;;;;4995270;28;20080;-70
2024/01/16 04:35:29;;;;;;;35.95;21.38;;;;;;;;;;4995518;28;20523;-71
2024/01/16 04:37:54;;;;;;;38.60;22.42;;;;;;;;;;4995935;28;20034;-71
2024/01/16 04:40:20;;;;;;;40.17;23.23;;;;;;;;;;4995554;28;20380;-70
2024/01/16 04:42:46;;;;;;;42.35;22.52;;;;;;;;;;4996033;28;20075;-71
2024/01/16 04:45:12;;;;;;;41.67;22.38;;;;;;;;;;5010382;28;20037;-70
2024/01/16 04:47:37;;;;;;;38.75;22.77;;;;;;;;;;4996160;28;20101;-71
2024/01/16 04:50:03;;;;;;;40.85;22.60;;;;;;;;;;4995815;28;20045;-72
2024/01/16 04:52:29;;;;;;;37.83;21.92;;;;;;;;;;4995281;28;20027;-70
2024/01/16 04:54:55;;;;;;;39.72;22.33;;;;;;;;;;4995164;28;20042;-71
2024/01/16 04:57:21;;;;;;;38.33;20.58;;;;;;;;;;4994912;28;20054;-71
2024/01/16 04:59:47;;;;;;;45.45;22.95;;;;;;;;;;4995045;28;20026;-71
2024/01/16 05:02:14;;;;;;;49.72;25.58;;;;;;;;;;4993475;28;20510;-71
2024/01/16 05:04:39;;;;;;;44.20;24.52;;;;;;;;;;4994357;28;20042;-71
2024/01/16 05:07:06;;;;;;;38.08;22.35;;;;;;;;;;4994899;28;20148;-72
2024/01/16 05:09:32;;;;;;;39.15;22.70;;;;;;;;;;4994824;28;20114;-71
2024/01/16 05:11:58;;;;;;;39.75;23.13;;;;;;;;;;4994882;28;20175;-71
2024/01/16 05:14:25;;;;;;;47.63;26.30;;;;;;;;;;5009746;28;20447;-70
2024/01/16 05:16:52;;;;;;;35.22;20.58;;;;;;;;;;4995126;28;20014;-71
2024/01/16 05:19:18;;;;;;;37.70;20.98;;;;;;;;;;4994701;28;20109;-71
2024/01/16 05:21:45;;;;;;;40.88;23.20;;;;;;;;;;4994721;28;20084;-71
2024/01/16 05:24:11;;;;;;;38.88;23.23;;;;;;;;;;4994378;28;20031;-70
2024/01/16 05:26:36;;;;;;;38.97;23.17;;;;;;;;;;4994360;28;20042;-72
2024/01/16 05:29:02;;;;;;;36.88;19.80;;;;;;;;;;4994642;28;20433;-71
2024/01/16 05:31:28;;;;;;;34.70;19.92;;;;;;;;;;4994302;28;20036;-71
2024/01/16 05:33:54;;;;;;;40.83;23.90;;;;;;;;;;4994241;28;20072;-71
2024/01/16 05:36:20;;;;;;;42.40;26.10;;;;;;;;;;4994149;28;20026;-72
2024/01/16 05:38:46;;;;;;;42.97;23.92;;;;;;;;;;4992854;28;20056;-71
2024/01/16 05:41:11;;;;;;;45.75;24.77;;;;;;;;;;4993697;28;20109;-71
2024/01/16 05:43:37;;;;;;;45.67;24.35;;;;;;;;;;4993741;28;20026;-70
2024/01/16 05:46:03;;;;;;;38.35;21.15;;;;;;;;;;4994497;28;20661;-73
2024/01/16 05:48:28;;;;;;;39.40;22.90;;;;;;;;;;5003325;28;20475;-74
2024/01/16 05:50:54;;;;;;;41.53;23.05;;;;;;;;;;4990634;28;20380;-74
2024/01/16 05:53:20;;;;;;;43.53;25.58;;;;;;;;;;4993584;28;20041;-74
2024/01/16 05:55:45;;;;;;;44.15;23.90;;;;;;;;;;4992191;28;20034;-74
2024/01/16 05:58:11;;;;;;;43.63;25.17;;;;;;;;;;4972763;28;20049;-74
2024/01/16 06:00:40;;;;;;;50.45;25.65;;;;;;;;;;4992429;28;20030;-74
2024/01/16 06:03:06;;;;;;;41.67;23.73;;;;;;;;;;4989742;28;20041;-73
2024/01/16 06:05:32;;;;;;;41.85;23.45;;;;;;;;;;4990888;28;20030;-74
2024/01/16 06:07:57;;;;;;;48.65;27.55;;;;;;;;;;4991201;28;20495;-74
2024/01/16 06:10:23;;;;;;;50.05;26.80;;;;;;;;;;4973571;28;20038;-73
2024/01/16 06:12:49;;;;;;;42.85;24.67;;;;;;;;;;4972960;28;20041;-73
2024/01/16 06:15:15;;;;;;;45.60;25.23;;;;;;;;;;4990921;28;20431;-73
2024/01/16 06:17:40;;;;;;;43.63;23.50;;;;;;;;;;4992771;28;20054;-73
2024/01/16 06:20:06;;;;;;;37.53;20.75;;;;;;;;;;4975376;28;20100;-72
2024/01/16 06:22:32;;;;;;;40.45;22.95;;;;;;;;;;4992932;28;20089;-72
2024/01/16 06:24:59;;;;;;;37.58;23.00;;;;;;;;;;4975559;28;20069;-71
2024/01/16 06:27:25;;;;;;;34.35;21.48;;;;;;;;;;4992419;28;20455;-71
2024/01/16 06:29:51;;;;;;;37.88;22.58;;;;;;;;;;4993496;28;20070;-72
2024/01/16 06:32:16;;;;;;;40.95;24.35;;;;;;;;;;4992198;28;20050;-72
2024/01/16 06:34:43;;;;;;;37.28;21.60;;;;;;;;;;4991949;28;20395;-72
2024/01/16 06:37:08;;;;;;;36.55;21.17;;;;;;;;;;4992228;28;20439;-73
2024/01/16 06:39:35;;;;;;;35.08;20.58;;;;;;;;;;4974448;28;20058;-73
2024/01/16 06:42:01;;;;;;;35.55;21.90;;;;;;;;;;4992339;28;20034;-73
2024/01/16 06:44:27;;;;;;;37.63;21.48;;;;;;;;;;4991721;28;20547;-73
2024/01/16 06:46:53;;;;;;;36.58;22.52;;;;;;;;;;4974584;28;20299;-72
2024/01/16 06:49:18;;;;;;;38.00;22.48;;;;;;;;;;4991737;28;20073;-72
2024/01/16 06:51:44;;;;;;;35.30;22.60;;;;;;;;;;4992105;28;20435;-70
2024/01/16 06:54:10;;;;;;;37.33;22.70;;;;;;;;;;4991233;28;20045;-73
2024/01/16 06:56:36;;;;;;;36.15;21.13;;;;;;;;;;4991752;28;20053;-72
2024/01/16 06:59:01;;;;;;;39.95;22.80;;;;;;;;;;4991395;28;20335;-73
2024/01/16 07:01:27;;;;;;;37.05;21.58;;;;;;;;;;4975029;28;20034;-73
2024/01/16 07:03:53;;;;;;;32.22;19.90;;;;;;;;;;4992127;28;20118;-73
2024/01/16 07:06:19;;;;;;;29.95;18.65;;;;;;;;;;4974452;28;20395;-76
2024/01/16 07:08:45;;;;;;;34.47;20.27;;;;;;;;;;4991976;28;20460;-74
2024/01/16 07:11:13;;;;;;;31.33;19.50;;;;;;;;;;4991767;28;20073;-73
2024/01/16 07:13:39;;;;;;;33.38;20.60;;;;;;;;;;4991450;28;20037;-74
2024/01/16 07:16:10;;;;;;;30.25;19.50;;;;;;;;;;4974356;28;20061;-74
2024/01/16 07:18:38;;;;;;;41.10;20.48;;;;;;;;;;5006104;28;20053;-73
2024/01/16 07:21:04;;;;;;;36.60;20.67;;;;;;;;;;4991607;28;20018;-73
2024/01/16 07:23:30;;;;;;;64.38;24.65;;;;;;;;;;4991781;28;20479;-74
2024/01/16 07:25:56;;;;;;;46.53;25.40;;;;;;;;;;4991209;28;20034;-74
2024/01/16 07:28:24;;;;;;;42.38;22.88;;;;;;;;;;4991966;28;20502;-74
2024/01/16 07:30:52;;;;;;;49.67;22.70;;;;;;;;;;4991760;28;20054;-74
2024/01/16 07:33:18;;;;;;;52.55;23.50;;;;;;;;;;4991053;28;20113;-74
2024/01/16 07:35:47;;;;;;;55.85;21.38;;;;;;;;;;4991209;28;20130;-74
2024/01/16 07:38:13;;;;;;;68.05;22.55;;;;;;;;;;4974446;28;20037;-73
2024/01/16 07:40:39;;;;;;;51.50;20.42;;;;;;;;;;4974029;28;20038;-74
2024/01/16 07:43:05;;;;;;;38.80;20.10;;;;;;;;;;4991409;28;20038;-74
2024/01/16 07:45:30;;;;;;;32.30;19.20;;;;;;;;;;4973935;28;20026;-74
2024/01/16 07:47:56;;;;;;;45.08;20.30;;;;;;;;;;4990940;28;20514;-75
2024/01/16 07:50:22;;;;;;;45.40;20.13;;;;;;;;;;4990648;28;20428;-74
2024/01/16 07:52:47;;;;;;;37.05;18.80;;;;;;;;;;4990955;28;20023;-73
2024/01/16 07:55:13;;;;;;;38.33;20.13;;;;;;;;;;4990590;28;20129;-75
2024/01/16 07:57:39;;;;;;;40.80;21.75;;;;;;;;;;4990983;28;20233;-74
2024/01/16 08:00:05;;;;;;;45.75;23.85;;;;;;;;;;4991114;28;20396;-74
2024/01/16 08:02:34;;;;;;;67.82;24.23;;;;;;;;;;4991224;28;20094;-75
2024/01/16 08:05:00;;;;;;;53.20;23.75;;;;;;;;;;4984977;28;20026;-76
2024/01/16 08:07:27;;;;;;;58.58;22.05;;;;;;;;;;4973841;28;20030;-75
2024/01/16 08:09:52;;;;;;;43.20;20.05;;;;;;;;;;4990674;28;20026;-75
2024/01/16 08:12:18;;;;;;;44.35;20.63;;;;;;;;;;4973755;28;20444;-73
2024/01/16 08:14:44;;;;;;;87.97;26.17;;;;;;;;;;4973338;28;20019;-74
2024/01/16 08:17:09;;;;;;;53.13;20.52;;;;;;;;;;4973193;28;20495;-76
2024/01/16 08:19:35;;;;;;;34.65;18.55;;;;;;;;;;4991046;28;20050;-75
2024/01/16 08:22:04;;;;;;;33.15;17.13;;;;;;;;;;4973304;28;20113;-75
2024/01/16 08:24:31;;;;;;;31.20;17.63;;;;;;;;;;4990971;28;20038;-75
2024/01/16 08:26:57;;;;;;;27.17;16.52;;;;;;;;;;4990923;28;20464;-72
2024/01/16 08:29:26;;;;;;;29.58;16.70;;;;;;;;;;4990702;28;20037;-72
2024/01/16 08:31:52;;;;;;;57.05;18.10;;;;;;;;;;4990426;28;20043;-72
2024/01/16 08:34:18;;;;;;;64.85;18.27;;;;;;;;;;4989885;28;20481;-73
2024/01/16 08:36:45;;;;;;;25.30;14.52;;;;;;;;;;4989707;28;20030;-73
2024/01/16 08:39:11;;;;;;;49.22;14.82;;;;;;;;;;4989952;28;20064;-72
2024/01/16 08:41:37;;;;;;;32.95;14.35;;;;;;;;;;4989700;28;20455;-73
2024/01/16 08:44:03;;;;;;;32.13;16.10;;;;;;;;;;4971866;28;20058;-72
2024/01/16 08:46:29;;;;;;;91.22;21.30;;;;;;;;;;4990040;28;20408;-73
2024/01/16 08:48:55;;;;;;;64.30;17.95;;;;;;;;;;4956102;28;20042;-73
2024/01/16 08:51:21;;;;;;;80.18;23.02;;;;;;;;;;4972057;28;20129;-73
2024/01/16 08:53:46;;;;;;;128.20;30.08;;;;;;;;;;4989785;28;20470;-73
2024/01/16 08:56:12;;;;;;;49.00;19.15;;;;;;;;;;4975053;28;20045;-74
2024/01/16 08:58:40;;;;;;;36.58;16.05;;;;;;;;;;4992884;28;20082;-73
2024/01/16 09:01:06;;;;;;;39.15;15.23;;;;;;;;;;5007846;28;20030;-73
2024/01/16 09:03:33;;;;;;;30.55;15.45;;;;;;;;;;4993017;28;20026;-73
2024/01/16 09:06:00;;;;;;;25.42;16.05;;;;;;;;;;4993650;28;20034;-74
2024/01/16 09:08:26;;;;;;;25.35;15.35;;;;;;;;;;4993206;28;20039;-74
2024/01/16 09:10:56;;;;;;;70.60;22.10;;;;;;;;;;4993371;28;20163;-74
2024/01/16 09:13:23;;;;;;;68.20;19.67;;;;;;;;;;4992873;28;20034;-73
2024/01/16 09:15:49;;;;;;;63.65;19.25;;;;;;;;;;4992669;28;20089;-74
2024/01/16 09:18:18;;;;;;;55.67;18.05;;;;;;;;;;4992875;28;20506;-74
2024/01/16 09:20:43;;;;;;;83.03;21.02;;;;;;;;;;4992438;28;20038;-74
2024/01/16 09:23:09;;;;;;;34.60;18.55;;;;;;;;;;4992647;28;20026;-73
2024/01/16 09:25:36;;;;;;;69.43;19.40;;;;;;;;;;4975038;28;20041;-72
2024/01/16 09:28:02;;;;;;;86.63;20.60;;;;;;;;;;4959076;28;20037;-73
2024/01/16 09:30:28;;;;;;;44.50;15.90;;;;;;;;;;4992958;28;20458;-73
2024/01/16 09:32:54;;;;;;;80.63;17.38;;;;;;;;;;4932717;28;1227176;-74
2024/01/16 09:35:22;;;;;;;34.72;16.25;;;;;;;;;;4993837;28;20041;-75
2024/01/16 09:37:48;;;;;;;31.38;13.50;;;;;;;;;;4994482;28;20089;-77
2024/01/16 09:40:14;;;;;;;30.42;14.30;;;;;;;;;;4993402;28;20034;-76
2024/01/16 09:42:43;;;;;;;31.70;16.27;;;;;;;;;;4993725;28;20029;-78
2024/01/16 09:45:10;;;;;;;34.95;16.35;;;;;;;;;;4993588;28;20053;-74
2024/01/16 09:47:38;;;;;;;128.48;45.22;;;;;;;;;;4975785;28;20590;-75
2024/01/16 09:50:08;;;;;;;48.53;17.05;;;;;;;;;;4993723;28;20026;-76
2024/01/16 09:52:36;;;;;;;58.20;20.48;;;;;;;;;;4992666;28;20046;-79
2024/01/16 09:55:06;;;;;;;79.53;25.30;;;;;;;;;;4976661;28;20479;-81
2024/01/16 09:57:32;;;;;;;26.95;14.65;;;;;;;;;;4992824;28;20119;-74
2024/01/16 09:59:59;;;;;;;45.78;16.90;;;;;;;;;;4976218;28;20030;-76
2024/01/16 10:02:25;;;;;;;32.70;15.43;;;;;;;;;;4976017;28;20083;-80
2024/01/16 10:04:52;;;;;;;35.47;16.83;;;;;;;;;;4959453;28;20039;-78
2024/01/16 10:07:27;;;;;;;26.48;15.82;;;;;;;;;;4974753;28;20360;-76
2024/01/16 10:09:57;;;;;;;42.10;16.05;;;;;;;;;;4977476;28;20089;-77
2024/01/16 10:12:24;;;;;;;37.70;15.52;;;;;;;;;;5008227;28;20498;-75
2024/01/16 10:14:51;;;;;;;26.70;14.18;;;;;;;;;;5007863;28;20026;-77
2024/01/16 10:17:18;;;;;;;25.27;15.60;;;;;;;;;;4992823;28;20143;-77
2024/01/16 10:19:56;;;;;;;40.92;17.50;;;;;;;;;;4991883;28;20046;-74
2024/01/16 10:22:27;;;;;;;36.05;15.50;;;;;;;;;;4975585;28;20045;-75
2024/01/16 10:25:12;;;;;;;26.65;17.15;;;;;;;;;;4974686;28;20404;-76
2024/01/16 10:27:40;;;;;;;50.10;17.35;;;;;;;;;;4986015;28;20510;-75
2024/01/16 10:30:07;;;;;;;37.80;16.58;;;;;;;;;;4992841;28;20467;-75
2024/01/16 10:32:37;;;;;;;47.28;16.90;;;;;;;;;;4992509;28;20088;-78
2024/01/16 10:35:10;;;;;;;47.40;17.25;;;;;;;;;;4975271;28;20046;-76
2024/01/16 10:37:53;;;;;;;;;;;;;;;;;;4992588;28;20041;-75
2024/01/16 10:40:27;;;;;;;40.42;16.15;;;;;;;;;;4992610;28;20344;-75
2024/01/16 10:43:04;;;;;;;24.98;15.02;;;;;;;;;;4992927;28;20050;-76
2024/01/16 10:45:32;;;;;;;29.58;15.88;;;;;;;;;;4992935;28;20084;-75
2024/01/16 10:48:05;;;;;;;27.42;16.45;;;;;;;;;;5008231;28;20480;-74
2024/01/16 10:50:33;;;;;;;29.08;16.80;;;;;;;;;;4985656;28;20089;-76
2024/01/16 10:53:08;;;;;;;28.63;16.55;;;;;;;;;;4992198;28;20395;-75
2024/01/16 10:55:51;;;;;;;47.97;18.60;;;;;;;;;;4991767;28;20061;-76
2024/01/16 10:58:22;;;;;;;28.83;17.52;;;;;;;;;;4989641;28;20058;-75
2024/01/16 11:00:52;;;;;;;57.55;20.05;;;;;;;;;;4992545;28;20361;-76
2024/01/16 11:03:30;;;;;;;60.10;21.58;;;;;;;;;;5006624;28;20516;-74
2024/01/16 11:06:01;;;;;;;53.45;22.52;;;;;;;;;;5006388;28;20463;-73
2024/01/16 11:08:30;;;;;;;41.38;21.88;;;;;;;;;;4992380;28;20084;-74
2024/01/16 11:10:59;;;;;;;62.03;22.40;;;;;;;;;;4973059;28;20034;-74
2024/01/16 11:13:25;;;;;;;34.05;21.20;;;;;;;;;;4949336;28;20054;-74
2024/01/16 11:15:51;;;;;;;39.65;20.60;;;;;;;;;;4973849;28;20066;-76
2024/01/16 11:18:19;;;;;;;32.78;20.50;;;;;;;;;;4974080;28;20034;-73
2024/01/16 11:20:45;;;;;;;38.78;20.67;;;;;;;;;;4985938;28;20041;-74
2024/01/16 11:23:13;;;;;;;51.28;22.85;;;;;;;;;;4974692;28;20038;-74
2024/01/16 11:25:39;;;;;;;33.78;18.13;;;;;;;;;;4991019;28;20080;-74
2024/01/16 11:28:13;;;;;;;35.85;17.10;;;;;;;;;;4991534;28;20197;-75
2024/01/16 11:30:40;;;;;;;35.33;15.55;;;;;;;;;;4991836;28;20046;-74
2024/01/16 11:33:06;;;;;;;26.38;13.88;;;;;;;;;;4991555;28;20080;-73
2024/01/16 11:35:40;;;;;;;22.00;13.43;;;;;;;;;;4991396;28;20042;-74
2024/01/16 11:38:16;;;;;;;25.35;13.13;;;;;;;;;;4973561;28;20045;-74
2024/01/16 11:40:43;;;;;;;24.52;13.27;;;;;;;;;;4973729;28;20018;-74
2024/01/16 11:43:33;;;;;;;34.42;14.55;;;;;;;;;;4958401;28;20062;-74
2024/01/16 11:46:08;;;;;;;23.05;13.35;;;;;;;;;;4991326;28;20109;-74
2024/01/16 11:48:35;;;;;;;30.08;13.90;;;;;;;;;;4992081;28;20042;-74
2024/01/16 11:51:24;;;;;;;34.42;14.55;;;;;;;;;;4974304;28;20050;-73
2024/01/16 11:53:49;;;;;;;33.50;13.60;;;;;;;;;;4991998;28;20034;-74
2024/01/16 11:56:18;;;;;;;32.10;13.93;;;;;;;;;;4974273;28;20041;-73
2024/01/16 11:59:02;;;;;;;32.47;13.48;;;;;;;;;;4991790;28;20026;-74
2024/01/16 12:01:30;;;;;;;25.63;11.70;;;;;;;;;;4974761;28;20042;-75
2024/01/16 12:04:07;;;;;;;23.65;11.48;;;;;;;;;;4991182;28;20034;-74
2024/01/16 12:06:36;;;;;;;22.35;11.00;;;;;;;;;;4991011;28;20038;-73
2024/01/16 12:09:15;;;;;;;19.73;10.90;;;;;;;;;;4991772;28;20044;-74
2024/01/16 12:11:45;;;;;;;26.38;11.48;;;;;;;;;;4991487;28;20027;-74
2024/01/16 12:14:12;;;;;;;25.13;11.75;;;;;;;;;;4991630;28;20476;-74
2024/01/16 12:16:38;;;;;;;18.25;10.50;;;;;;;;;;4973855;28;20030;-76
2024/01/16 12:19:08;;;;;;;26.55;12.20;;;;;;;;;;4990285;28;20471;-73
2024/01/16 12:21:41;;;;;;;19.25;11.05;;;;;;;;;;4991053;28;20030;-73
2024/01/16 12:24:08;;;;;;;38.22;13.98;;;;;;;;;;4990636;28;20038;-73
2024/01/16 12:26:34;;;;;;;28.52;12.65;;;;;;;;;;4972782;28;20502;-73
2024/01/16 12:29:00;;;;;;;22.08;10.98;;;;;;;;;;4991206;28;20073;-72
2024/01/16 12:31:28;;;;;;;24.73;11.45;;;;;;;;;;4994239;28;20121;-72
2024/01/16 12:34:07;;;;;;;23.15;11.90;;;;;;;;;;4994759;28;20042;-72
2024/01/16 12:36:33;;;;;;;29.48;13.57;;;;;;;;;;5009597;28;20439;-72
2024/01/16 12:38:59;;;;;;;21.05;11.25;;;;;;;;;;4977333;28;20117;-73
2024/01/16 12:41:30;;;;;;;29.92;13.60;;;;;;;;;;4994331;28;20437;-73
2024/01/16 12:43:56;;;;;;;20.35;11.85;;;;;;;;;;4977313;28;20053;-72
2024/01/16 12:46:23;;;;;;;22.17;12.15;;;;;;;;;;4994248;28;20388;-73
2024/01/16 12:48:50;;;;;;;66.88;15.43;;;;;;;;;;4989833;28;20044;-74
2024/01/16 12:51:23;;;;;;;34.28;13.27;;;;;;;;;;4993053;28;20484;-74
2024/01/16 12:53:49;;;;;;;33.37;13.23;;;;;;;;;;4993438;28;20030;-74
2024/01/16 12:56:20;;;;;;;30.50;14.02;;;;;;;;;;4992996;28;20820;-75
2024/01/16 12:58:46;;;;;;;27.90;14.77;;;;;;;;;;4994028;28;20145;-75
2024/01/16 13:01:29;;;;;;;45.00;14.48;;;;;;;;;;4975790;28;20121;-74
2024/01/16 13:03:55;;;;;;;35.25;14.63;;;;;;;;;;4988310;28;20061;-74
2024/01/16 13:06:23;;;;;;;35.33;16.17;;;;;;;;;;4991348;28;20144;-75
2024/01/16 13:08:50;;;;;;;38.35;16.60;;;;;;;;;;4984139;28;20088;-73
2024/01/16 13:11:20;;;;;;;27.23;16.55;;;;;;;;;;4994794;28;20049;-76
2024/01/16 13:13:51;;;;;;;33.75;18.55;;;;;;;;;;4994493;28;20090;-75
2024/01/16 13:16:18;;;;;;;38.55;17.77;;;;;;;;;;4993689;28;20399;-72
2024/01/16 13:18:43;;;;;;;47.25;18.60;;;;;;;;;;4994047;28;20496;-74
2024/01/16 13:21:10;;;;;;;30.63;15.80;;;;;;;;;;4993885;28;20116;-75
2024/01/16 13:23:35;;;;;;;27.15;14.65;;;;;;;;;;4976618;28;20142;-75
2024/01/16 13:26:04;;;;;;;30.30;16.35;;;;;;;;;;4994757;28;20046;-75
2024/01/16 13:28:30;;;;;;;30.45;17.42;;;;;;;;;;4994789;28;20037;-76
2024/01/16 13:30:56;;;;;;;27.63;17.17;;;;;;;;;;4976703;28;20089;-75
2024/01/16 13:33:26;;;;;;;35.42;18.67;;;;;;;;;;4976842;28;20404;-75
2024/01/16 13:35:54;;;;;;;27.15;18.13;;;;;;;;;;4989452;28;20066;-75
2024/01/16 13:38:21;;;;;;;38.17;18.90;;;;;;;;;;4991841;28;20030;-79
2024/01/16 13:40:47;;;;;;;52.95;22.33;;;;;;;;;;4994252;28;20069;-76
2024/01/16 13:43:13;;;;;;;47.30;19.55;;;;;;;;;;4993522;28;20105;-79
2024/01/16 13:45:41;;;;;;;49.42;21.48;;;;;;;;;;4993286;28;20408;-76
2024/01/16 13:48:07;;;;;;;41.28;20.10;;;;;;;;;;4993954;28;20022;-78
2024/01/16 13:50:33;;;;;;;42.67;19.83;;;;;;;;;;4991574;28;20057;-78
2024/01/16 13:52:59;;;;;;;34.40;19.70;;;;;;;;;;4976456;28;20399;-77
2024/01/16 13:55:26;;;;;;;39.40;20.80;;;;;;;;;;5007492;28;20026;-78
2024/01/16 13:57:52;;;;;;;92.95;40.97;;;;;;;;;;4976521;28;20065;-77
2024/01/16 14:00:18;;;;;;;47.58;24.40;;;;;;;;;;4993376;28;20030;-77
2024/01/16 14:02:45;;;;;;;52.10;26.55;;;;;;;;;;4993631;28;20076;-77
2024/01/16 14:05:15;;;;;;;54.13;26.33;;;;;;;;;;4993632;28;20052;-76
2024/01/16 14:07:43;;;;;;;64.68;23.15;;;;;;;;;;4993395;28;20045;-77
2024/01/16 14:10:10;;;;;;;51.08;29.70;;;;;;;;;;4975741;28;20065;-75
2024/01/16 14:12:36;;;;;;;63.10;35.95;;;;;;;;;;4992740;28;20436;-76
2024/01/16 14:15:07;;;;;;;40.60;21.48;;;;;;;;;;4978648;28;20037;-76
2024/01/16 14:17:34;;;;;;;42.33;21.65;;;;;;;;;;4991640;28;20053;-77